createdAt,value
2016-05-23T00:00:24.231Z,15.1
2016-05-23T00:01:24.390Z,15.18
2016-05-23T00:02:24.393Z,15.18
2016-05-23T00:03:24.380Z,15.11
2016-05-23T00:04:24.226Z,15.1
2016-05-23T00:05:24.229Z,15.22
2016-05-23T00:06:24.388Z,15.11
2016-05-23T00:07:24.234Z,15.11
2016-05-23T00:08:24.394Z,15.1
2016-05-23T00:09:24.397Z,15.07
2016-05-23T00:10:24.399Z,14.99
2016-05-23T00:11:24.245Z,15.08
2016-05-23T00:12:24.389Z,15.08
2016-05-23T00:13:24.407Z,15
2016-05-23T00:14:24.268Z,14.93
2016-05-23T00:15:24.396Z,15.04
2016-05-23T00:16:24.244Z,14.96
2016-05-23T00:17:24.402Z,15
2016-05-23T00:18:24.404Z,14.93
2016-05-23T00:19:24.424Z,15.02
2016-05-23T00:20:24.426Z,14.92
2016-05-23T00:21:24.257Z,14.96
2016-05-23T00:22:24.415Z,15
2016-05-23T00:23:24.403Z,14.93
2016-05-23T00:24:24.421Z,14.94
2016-05-23T00:25:24.267Z,14.92
2016-05-23T00:26:24.427Z,14.86
2016-05-23T00:27:24.444Z,14.93
2016-05-23T00:28:24.416Z,14.92
2016-05-23T00:29:24.575Z,14.77
2016-05-23T00:30:24.421Z,14.89
2016-05-23T00:31:24.440Z,14.94
2016-05-23T00:32:24.426Z,14.87
2016-05-23T00:33:24.429Z,14.86
2016-05-23T00:34:24.276Z,14.79
2016-05-23T00:35:24.434Z,14.74
2016-05-23T00:36:24.422Z,14.86
2016-05-23T00:37:24.440Z,14.79
2016-05-23T00:38:24.428Z,14.82
2016-05-23T00:39:24.430Z,14.81
2016-05-23T00:40:24.277Z,14.81
2016-05-23T00:41:24.435Z,14.71
2016-05-23T00:42:24.438Z,14.73
2016-05-23T00:43:24.441Z,14.71
2016-05-23T00:44:24.709Z,14.71
2016-05-23T00:45:24.446Z,14.68
2016-05-23T00:46:24.449Z,14.71
2016-05-23T00:47:24.452Z,14.73
2016-05-23T00:48:24.454Z,14.7
2016-05-23T00:49:24.457Z,14.7
2016-05-23T00:50:24.444Z,14.73
2016-05-23T00:51:24.447Z,14.68
2016-05-23T00:52:24.449Z,14.68
2016-05-23T00:53:24.451Z,14.62
2016-05-23T00:54:24.440Z,14.61
2016-05-23T00:55:24.301Z,14.59
2016-05-23T00:56:24.475Z,14.59
2016-05-23T00:57:24.463Z,14.49
2016-05-23T00:58:24.465Z,14.55
2016-05-23T00:59:25.015Z,14.59
2016-05-23T01:00:24.314Z,14.51
2016-05-23T01:01:24.459Z,14.49
2016-05-23T01:02:24.461Z,14.51
2016-05-23T01:03:24.463Z,14.45
2016-05-23T01:04:24.467Z,14.49
2016-05-23T01:05:24.469Z,14.52
2016-05-23T01:06:24.487Z,14.45
2016-05-23T01:07:24.458Z,14.4
2016-05-23T01:08:24.461Z,14.38
2016-05-23T01:09:24.480Z,14.4
2016-05-23T01:10:24.482Z,14.38
2016-05-23T01:11:24.469Z,14.4
2016-05-23T01:12:24.316Z,14.26
2016-05-23T01:13:24.475Z,14.25
2016-05-23T01:14:24.508Z,14.36
2016-05-23T01:15:24.480Z,14.22
2016-05-23T01:16:24.483Z,14.23
2016-05-23T01:17:24.469Z,14.34
2016-05-23T01:18:24.488Z,14.28
2016-05-23T01:19:24.335Z,14.25
2016-05-23T01:20:24.478Z,14.25
2016-05-23T01:21:24.480Z,14.25
2016-05-23T01:22:24.499Z,14.2
2016-05-23T01:23:24.329Z,14.2
2016-05-23T01:24:24.488Z,14.15
2016-05-23T01:25:24.491Z,14.15
2016-05-23T01:26:24.493Z,14.13
2016-05-23T01:27:24.497Z,14.12
2016-05-23T01:28:24.499Z,14.12
2016-05-23T01:29:24.689Z,14.07
2016-05-23T01:30:24.504Z,13.94
2016-05-23T01:31:24.507Z,13.95
2016-05-23T01:32:24.495Z,13.97
2016-05-23T01:33:24.497Z,13.86
2016-05-23T01:34:24.500Z,13.93
2016-05-23T01:35:24.503Z,13.89
2016-05-23T01:36:24.505Z,13.8
2016-05-23T01:37:24.492Z,13.75
2016-05-23T01:38:24.510Z,13.79
2016-05-23T01:39:24.498Z,13.8
2016-05-23T01:40:24.516Z,13.76
2016-05-23T01:41:24.503Z,13.71
2016-05-23T01:42:24.522Z,13.7
2016-05-23T01:43:24.508Z,13.73
2016-05-23T01:44:24.714Z,13.8
2016-05-23T01:45:24.358Z,13.73
2016-05-23T01:46:24.516Z,13.68
2016-05-23T01:47:24.519Z,13.7
2016-05-23T01:48:24.506Z,13.7
2016-05-23T01:49:24.524Z,13.7
2016-05-23T01:50:24.511Z,13.6
2016-05-23T01:51:24.530Z,13.64
2016-05-23T01:52:24.516Z,13.67
2016-05-23T01:53:24.519Z,13.61
2016-05-23T01:54:24.522Z,13.62
2016-05-23T01:55:24.541Z,13.64
2016-05-23T01:56:24.527Z,13.6
2016-05-23T01:57:24.530Z,13.64
2016-05-23T01:58:24.533Z,13.64
2016-05-23T01:59:24.551Z,13.64
2016-05-23T02:00:24.210Z,13.62
2016-05-23T02:01:24.540Z,13.68
2016-05-23T02:02:24.544Z,13.6
2016-05-23T02:03:24.531Z,13.6
2016-05-23T02:04:24.533Z,13.62
2016-05-23T02:05:24.552Z,13.61
2016-05-23T02:06:24.226Z,13.68
2016-05-23T02:07:24.541Z,13.55
2016-05-23T02:08:24.545Z,13.58
2016-05-23T02:09:24.548Z,13.6
2016-05-23T02:10:24.550Z,13.55
2016-05-23T02:11:24.381Z,13.5
2016-05-23T02:12:24.383Z,13.54
2016-05-23T02:13:24.385Z,13.52
2016-05-23T02:14:24.545Z,13.49
2016-05-23T02:15:24.547Z,13.49
2016-05-23T02:16:24.550Z,13.49
2016-05-23T02:17:24.552Z,13.49
2016-05-23T02:18:24.540Z,13.46
2016-05-23T02:19:24.402Z,13.45
2016-05-23T02:20:24.561Z,13.42
2016-05-23T02:21:24.564Z,13.39
2016-05-23T02:22:24.551Z,13.36
2016-05-23T02:23:24.397Z,13.37
2016-05-23T02:24:24.557Z,13.27
2016-05-23T02:25:24.246Z,13.31
2016-05-23T02:26:24.546Z,13.31
2016-05-23T02:27:24.549Z,13.24
2016-05-23T02:28:24.567Z,13.26
2016-05-23T02:29:24.570Z,13.28
2016-05-23T02:30:24.557Z,13.27
2016-05-23T02:31:24.575Z,13.28
2016-05-23T02:32:24.422Z,13.2
2016-05-23T02:33:24.424Z,13.26
2016-05-23T02:34:24.568Z,13.28
2016-05-23T02:35:24.570Z,13.17
2016-05-23T02:36:24.572Z,13.33
2016-05-23T02:37:24.576Z,13.24
2016-05-23T02:38:24.578Z,13.23
2016-05-23T02:39:24.581Z,13.24
2016-05-23T02:40:24.583Z,13.16
2016-05-23T02:41:24.571Z,13.28
2016-05-23T02:42:24.417Z,13.27
2016-05-23T02:43:24.592Z,13.21
2016-05-23T02:44:25.016Z,13.16
2016-05-23T02:45:24.581Z,13.26
2016-05-23T02:46:24.584Z,13.27
2016-05-23T02:47:24.586Z,13.16
2016-05-23T02:48:24.433Z,13.26
2016-05-23T02:49:24.577Z,13.24
2016-05-23T02:50:24.580Z,13.2
2016-05-23T02:51:24.425Z,13.08
2016-05-23T02:52:24.585Z,13.11
2016-05-23T02:53:24.587Z,13.12
2016-05-23T02:54:24.590Z,13.12
2016-05-23T02:55:24.593Z,13.03
2016-05-23T02:56:24.596Z,13.01
2016-05-23T02:57:24.599Z,13.02
2016-05-23T02:58:24.585Z,12.99
2016-05-23T02:59:25.196Z,12.98
2016-05-23T03:00:24.590Z,12.91
2016-05-23T03:01:24.593Z,12.93
2016-05-23T03:02:24.440Z,12.98
2016-05-23T03:03:24.598Z,12.84
2016-05-23T03:04:24.601Z,12.86
2016-05-23T03:05:24.603Z,12.87
2016-05-23T03:06:24.606Z,12.93
2016-05-23T03:07:24.593Z,12.86
2016-05-23T03:08:24.596Z,12.81
2016-05-23T03:09:24.442Z,12.86
2016-05-23T03:10:24.601Z,12.84
2016-05-23T03:11:24.604Z,12.86
2016-05-23T03:12:24.607Z,12.8
2016-05-23T03:13:24.453Z,12.75
2016-05-23T03:14:24.316Z,12.75
2016-05-23T03:15:24.615Z,12.75
2016-05-23T03:16:24.603Z,12.72
2016-05-23T03:17:24.605Z,12.69
2016-05-23T03:18:24.607Z,12.61
2016-05-23T03:19:24.626Z,12.57
2016-05-23T03:20:24.613Z,12.55
2016-05-23T03:21:24.303Z,12.57
2016-05-23T03:22:24.603Z,12.57
2016-05-23T03:23:24.621Z,12.5
2016-05-23T03:24:24.452Z,12.54
2016-05-23T03:25:24.611Z,12.54
2016-05-23T03:26:24.614Z,12.47
2016-05-23T03:27:24.632Z,12.45
2016-05-23T03:28:24.618Z,12.5
2016-05-23T03:29:24.746Z,12.44
2016-05-23T03:30:24.624Z,12.45
2016-05-23T03:31:24.627Z,12.48
2016-05-23T03:32:24.629Z,12.44
2016-05-23T03:33:24.632Z,12.44
2016-05-23T03:34:24.634Z,12.36
2016-05-23T03:35:24.310Z,12.39
2016-05-23T03:36:24.656Z,12.37
2016-05-23T03:37:24.659Z,12.39
2016-05-23T03:38:24.630Z,12.33
2016-05-23T03:39:24.633Z,12.35
2016-05-23T03:40:24.636Z,12.29
2016-05-23T03:41:24.639Z,12.33
2016-05-23T03:42:24.656Z,12.3
2016-05-23T03:43:24.628Z,12.26
2016-05-23T03:44:24.475Z,12.32
2016-05-23T03:45:24.633Z,12.28
2016-05-23T03:46:24.636Z,12.32
2016-05-23T03:47:24.638Z,12.3
2016-05-23T03:48:24.642Z,12.32
2016-05-23T03:49:24.644Z,12.25
2016-05-23T03:50:24.647Z,12.3
2016-05-23T03:51:24.650Z,12.21
2016-05-23T03:52:24.636Z,12.11
2016-05-23T03:53:24.639Z,12.26
2016-05-23T03:54:24.642Z,12.2
2016-05-23T03:55:24.661Z,12.17
2016-05-23T03:56:24.647Z,12.11
2016-05-23T03:57:24.650Z,12.2
2016-05-23T03:58:24.637Z,12.2
2016-05-23T03:59:24.937Z,12.2
2016-05-23T04:00:24.658Z,12.17
2016-05-23T04:01:24.504Z,12.14
2016-05-23T04:02:24.648Z,12.12
2016-05-23T04:03:24.666Z,12.12
2016-05-23T04:04:24.654Z,12.14
2016-05-23T04:05:24.656Z,12.17
2016-05-23T04:06:24.502Z,12.12
2016-05-23T04:07:24.505Z,12.1
2016-05-23T04:08:24.665Z,12.11
2016-05-23T04:09:24.651Z,12.12
2016-05-23T04:10:24.498Z,12.12
2016-05-23T04:11:24.656Z,12.02
2016-05-23T04:12:24.659Z,12.02
2016-05-23T04:13:24.506Z,12.03
2016-05-23T04:14:24.978Z,12.02
2016-05-23T04:15:24.511Z,12.03
2016-05-23T04:16:24.670Z,11.99
2016-05-23T04:17:24.657Z,11.99
2016-05-23T04:18:24.675Z,12
2016-05-23T04:19:24.662Z,11.88
2016-05-23T04:20:24.665Z,11.95
2016-05-23T04:21:24.667Z,11.91
2016-05-23T04:22:24.670Z,11.83
2016-05-23T04:23:24.689Z,11.83
2016-05-23T04:24:24.675Z,11.8
2016-05-23T04:25:24.678Z,11.83
2016-05-23T04:26:24.681Z,11.81
2016-05-23T04:27:24.684Z,11.86
2016-05-23T04:28:24.671Z,11.77
2016-05-23T04:29:25.455Z,11.78
2016-05-23T04:30:24.691Z,11.74
2016-05-23T04:31:24.679Z,11.65
2016-05-23T04:32:24.681Z,11.74
2016-05-23T04:33:24.684Z,11.76
2016-05-23T04:34:24.671Z,11.8
2016-05-23T04:35:24.674Z,11.7
2016-05-23T04:36:24.677Z,11.7
2016-05-23T04:37:24.679Z,11.63
2016-05-23T04:38:24.682Z,11.62
2016-05-23T04:39:24.685Z,11.63
2016-05-23T04:40:24.703Z,11.71
2016-05-23T04:41:24.706Z,11.59
2016-05-23T04:42:24.709Z,11.56
2016-05-23T04:43:24.681Z,11.71
2016-05-23T04:44:24.683Z,11.58
2016-05-23T04:45:24.701Z,11.55
2016-05-23T04:46:24.689Z,11.59
2016-05-23T04:47:24.534Z,11.56
2016-05-23T04:48:24.709Z,11.52
2016-05-23T04:49:24.697Z,11.63
2016-05-23T04:50:24.700Z,11.55
2016-05-23T04:51:24.703Z,11.53
2016-05-23T04:52:24.719Z,11.52
2016-05-23T04:53:24.692Z,11.43
2016-05-23T04:54:24.710Z,11.52
2016-05-23T04:55:24.697Z,11.45
2016-05-23T04:56:24.700Z,11.41
2016-05-23T04:57:24.703Z,11.52
2016-05-23T04:58:24.705Z,11.51
2016-05-23T04:59:24.973Z,11.43
2016-05-23T05:00:24.695Z,11.48
2016-05-23T05:01:24.697Z,11.45
2016-05-23T05:02:24.541Z,11.49
2016-05-23T05:03:24.716Z,11.49
2016-05-23T05:04:24.702Z,11.45
2016-05-23T05:05:24.705Z,11.49
2016-05-23T05:06:24.708Z,11.53
2016-05-23T05:07:24.711Z,11.48
2016-05-23T05:08:24.698Z,11.43
2016-05-23T05:09:24.701Z,11.33
2016-05-23T05:10:24.719Z,11.35
2016-05-23T05:11:24.706Z,11.35
2016-05-23T05:12:24.709Z,11.38
2016-05-23T05:13:24.555Z,11.33
2016-05-23T05:14:24.776Z,11.27
2016-05-23T05:15:24.560Z,11.3
2016-05-23T05:16:24.703Z,11.3
2016-05-23T05:17:24.707Z,11.27
2016-05-23T05:18:24.709Z,11.25
2016-05-23T05:19:24.712Z,11.25
2016-05-23T05:20:24.714Z,11.33
2016-05-23T05:21:24.718Z,11.2
2016-05-23T05:22:24.704Z,11.26
2016-05-23T05:23:24.566Z,11.31
2016-05-23T05:24:24.554Z,11.16
2016-05-23T05:25:24.556Z,11.1
2016-05-23T05:26:24.714Z,11.16
2016-05-23T05:27:24.718Z,11.18
2016-05-23T05:28:24.720Z,11.05
2016-05-23T05:29:25.052Z,11.1
2016-05-23T05:30:24.726Z,11.08
2016-05-23T05:31:24.713Z,10.98
2016-05-23T05:32:24.560Z,10.9
2016-05-23T05:33:24.718Z,10.97
2016-05-23T05:34:24.721Z,11
2016-05-23T05:35:24.568Z,10.94
2016-05-23T05:36:24.742Z,10.95
2016-05-23T05:37:24.713Z,10.97
2016-05-23T05:38:24.716Z,10.94
2016-05-23T05:39:24.735Z,10.89
2016-05-23T05:40:24.582Z,10.89
2016-05-23T05:41:24.724Z,10.86
2016-05-23T05:42:24.727Z,10.8
2016-05-23T05:43:24.730Z,10.89
2016-05-23T05:44:24.826Z,10.84
2016-05-23T05:45:24.720Z,10.77
2016-05-23T05:46:24.722Z,10.89
2016-05-23T05:47:24.725Z,10.84
2016-05-23T05:48:24.743Z,10.84
2016-05-23T05:49:24.745Z,10.83
2016-05-23T05:50:24.748Z,10.8
2016-05-23T05:51:24.736Z,10.79
2016-05-23T05:52:24.739Z,10.82
2016-05-23T05:53:24.741Z,10.92
2016-05-23T05:54:24.728Z,10.92
2016-05-23T05:55:24.747Z,10.8
2016-05-23T05:56:24.749Z,10.83
2016-05-23T05:57:24.736Z,10.87
2016-05-23T05:58:24.770Z,10.9
2016-05-23T05:59:24.758Z,10.89
2016-05-23T06:00:24.744Z,10.72
2016-05-23T06:01:25.231Z,10.82
2016-05-23T06:02:24.750Z,10.77
2016-05-23T06:03:24.753Z,10.83
2016-05-23T06:04:24.427Z,10.69
2016-05-23T06:05:24.742Z,10.67
2016-05-23T06:06:25.136Z,10.67
2016-05-23T06:07:24.747Z,10.68
2016-05-23T06:08:24.749Z,10.77
2016-05-23T06:09:24.752Z,10.69
2016-05-23T06:10:24.740Z,10.79
2016-05-23T06:11:24.743Z,10.75
2016-05-23T06:12:24.745Z,10.75
2016-05-23T06:13:24.763Z,10.72
2016-05-23T06:14:24.968Z,10.79
2016-05-23T06:15:24.754Z,10.8
2016-05-23T06:16:24.756Z,10.8
2016-05-23T06:17:24.759Z,10.76
2016-05-23T06:18:24.605Z,10.8
2016-05-23T06:19:24.749Z,10.83
2016-05-23T06:20:24.751Z,10.76
2016-05-23T06:21:25.395Z,10.8
2016-05-23T06:22:24.773Z,10.75
2016-05-23T06:23:24.618Z,10.72
2016-05-23T06:24:24.745Z,10.72
2016-05-23T06:25:24.858Z,10.68
2016-05-23T06:26:27.486Z,10.69
2016-05-23T06:27:24.770Z,10.67
2016-05-23T06:28:24.756Z,10.67
2016-05-23T06:29:24.791Z,10.65
2016-05-23T06:30:24.622Z,10.57
2016-05-23T06:31:26.922Z,10.65
2016-05-23T06:32:24.752Z,10.58
2016-05-23T06:33:24.755Z,10.57
2016-05-23T06:34:24.773Z,10.51
2016-05-23T06:35:24.605Z,10.55
2016-05-23T06:36:24.763Z,10.57
2016-05-23T06:37:24.797Z,10.57
2016-05-23T06:38:24.769Z,10.51
2016-05-23T06:39:24.756Z,10.53
2016-05-23T06:40:25.913Z,10.61
2016-05-23T06:41:24.777Z,10.49
2016-05-23T06:42:24.779Z,10.58
2016-05-23T06:43:24.610Z,10.58
2016-05-23T06:44:24.643Z,10.58
2016-05-23T06:45:26.365Z,10.59
2016-05-23T06:46:24.759Z,10.65
2016-05-23T06:47:24.762Z,10.58
2016-05-23T06:48:24.780Z,10.64
2016-05-23T06:49:24.793Z,10.59
2016-05-23T06:50:24.680Z,10.61
2016-05-23T06:51:27.427Z,10.51
2016-05-23T06:52:24.877Z,10.51
2016-05-23T06:53:24.905Z,10.51
2016-05-23T06:54:24.916Z,10.51
2016-05-23T06:55:24.928Z,10.53
2016-05-23T06:56:25.174Z,10.57
2016-05-23T06:57:24.781Z,10.39
2016-05-23T06:58:24.948Z,10.33
2016-05-23T06:59:25.360Z,10.42
2016-05-23T07:00:24.990Z,10.27
2016-05-23T07:01:24.966Z,10.27
2016-05-23T07:02:24.987Z,10.24
2016-05-23T07:03:24.993Z,10.21
2016-05-23T07:04:24.965Z,10.15
2016-05-23T07:05:27.204Z,10.21
2016-05-23T07:06:25.004Z,10.07
2016-05-23T07:07:24.836Z,10.07
2016-05-23T07:08:24.980Z,10.12
2016-05-23T07:09:24.983Z,10.13
2016-05-23T07:10:24.986Z,10.18
2016-05-23T07:11:26.756Z,10.17
2016-05-23T07:12:24.992Z,10.05
2016-05-23T07:13:24.980Z,10.03
2016-05-23T07:14:24.999Z,10.03
2016-05-23T07:15:24.846Z,10.03
2016-05-23T07:16:26.911Z,10.1
2016-05-23T07:17:25.086Z,10.06
2016-05-23T07:18:24.996Z,10.07
2016-05-23T07:19:24.982Z,10.02
2016-05-23T07:20:25.001Z,10.05
2016-05-23T07:21:27.019Z,9.94
2016-05-23T07:22:24.991Z,9.99
2016-05-23T07:23:24.994Z,9.95
2016-05-23T07:24:24.840Z,10
2016-05-23T07:25:24.999Z,9.95
2016-05-23T07:26:26.939Z,9.94
2016-05-23T07:27:24.832Z,10
2016-05-23T07:28:25.006Z,9.94
2016-05-23T07:29:25.212Z,9.95
2016-05-23T07:30:24.996Z,9.97
2016-05-23T07:31:26.171Z,9.85
2016-05-23T07:32:25.001Z,9.9
2016-05-23T07:33:25.004Z,9.88
2016-05-23T07:34:25.006Z,9.85
2016-05-23T07:35:24.682Z,9.87
2016-05-23T07:36:24.856Z,9.85
2016-05-23T07:37:25.000Z,9.9
2016-05-23T07:38:25.003Z,9.9
2016-05-23T07:39:24.850Z,9.9
2016-05-23T07:40:25.008Z,9.99
2016-05-23T07:41:25.011Z,9.92
2016-05-23T07:42:25.028Z,9.88
2016-05-23T07:43:25.016Z,9.87
2016-05-23T07:44:25.018Z,9.76
2016-05-23T07:45:24.850Z,9.77
2016-05-23T07:46:25.008Z,9.81
2016-05-23T07:47:25.010Z,9.66
2016-05-23T07:48:25.013Z,9.74
2016-05-23T07:49:25.001Z,9.73
2016-05-23T07:50:25.003Z,9.8
2016-05-23T07:51:25.382Z,9.74
2016-05-23T07:52:25.009Z,9.69
2016-05-23T07:53:25.027Z,9.66
2016-05-23T07:54:25.014Z,9.62
2016-05-23T07:55:24.860Z,9.63
2016-05-23T07:56:25.020Z,9.74
2016-05-23T07:57:25.023Z,9.7
2016-05-23T07:58:25.025Z,9.76
2016-05-23T07:59:25.512Z,9.85
2016-05-23T08:00:24.858Z,9.87
2016-05-23T08:01:27.034Z,10.05
2016-05-23T08:02:25.020Z,10.06
2016-05-23T08:03:25.023Z,10.17
2016-05-23T08:04:25.025Z,10.21
2016-05-23T08:05:24.856Z,10.27
2016-05-23T08:06:24.875Z,10.3
2016-05-23T08:07:24.862Z,10.42
2016-05-23T08:08:25.020Z,10.36
2016-05-23T08:09:24.867Z,10.41
2016-05-23T08:10:25.026Z,10.36
2016-05-23T08:11:25.029Z,10.39
2016-05-23T08:12:25.031Z,10.39
2016-05-23T08:13:24.878Z,10.39
2016-05-23T08:14:24.912Z,10.53
2016-05-23T08:15:25.039Z,10.61
2016-05-23T08:16:27.463Z,10.75
2016-05-23T08:17:25.029Z,10.89
2016-05-23T08:18:25.047Z,10.82
2016-05-23T08:19:25.035Z,10.84
2016-05-23T08:20:25.053Z,10.95
2016-05-23T08:21:25.040Z,11.05
2016-05-23T08:22:25.043Z,11.12
2016-05-23T08:23:25.045Z,11.16
2016-05-23T08:24:25.032Z,11.19
2016-05-23T08:25:24.878Z,11.2
2016-05-23T08:26:25.038Z,11.18
2016-05-23T08:27:25.056Z,11.07
2016-05-23T08:28:24.887Z,11.08
2016-05-23T08:29:24.889Z,11.16
2016-05-23T08:30:25.048Z,11.2
2016-05-23T08:31:25.051Z,11.15
2016-05-23T08:32:25.070Z,11.12
2016-05-23T08:33:25.056Z,11.22
2016-05-23T08:34:25.059Z,11.19
2016-05-23T08:35:25.046Z,11.3
2016-05-23T08:36:25.503Z,11.31
2016-05-23T08:37:24.895Z,11.43
2016-05-23T08:38:24.898Z,11.52
2016-05-23T08:39:24.901Z,11.65
2016-05-23T08:40:25.044Z,11.67
2016-05-23T08:41:25.344Z,11.65
2016-05-23T08:42:25.064Z,11.67
2016-05-23T08:43:25.052Z,11.77
2016-05-23T08:44:25.070Z,11.74
2016-05-23T08:45:24.902Z,11.7
2016-05-23T08:46:24.905Z,11.77
2016-05-23T08:47:25.047Z,11.81
2016-05-23T08:48:25.066Z,11.93
2016-05-23T08:49:25.053Z,11.8
2016-05-23T08:50:25.055Z,11.8
2016-05-23T08:51:24.901Z,11.88
2016-05-23T08:52:25.060Z,11.85
2016-05-23T08:53:25.063Z,12.03
2016-05-23T08:54:25.066Z,11.86
2016-05-23T08:55:25.069Z,11.99
2016-05-23T08:56:25.072Z,12.1
2016-05-23T08:57:25.074Z,12.14
2016-05-23T08:58:25.077Z,12.25
2016-05-23T08:59:25.095Z,12.32
2016-05-23T09:00:25.082Z,12.48
2016-05-23T09:01:24.929Z,12.58
2016-05-23T09:02:25.103Z,12.53
2016-05-23T09:03:24.918Z,12.72
2016-05-23T09:04:25.078Z,12.75
2016-05-23T09:05:25.081Z,12.81
2016-05-23T09:06:25.083Z,12.94
2016-05-23T09:07:25.086Z,13.06
2016-05-23T09:08:25.073Z,13.17
2016-05-23T09:09:25.091Z,13.28
2016-05-23T09:10:25.078Z,13.3
2016-05-23T09:11:25.080Z,13.36
2016-05-23T09:12:25.083Z,13.27
2016-05-23T09:13:24.930Z,13.19
2016-05-23T09:14:25.089Z,13.21
2016-05-23T09:15:25.092Z,13.28
2016-05-23T09:16:24.938Z,13.2
2016-05-23T09:17:25.097Z,13.17
2016-05-23T09:18:25.100Z,13.06
2016-05-23T09:19:25.103Z,13.02
2016-05-23T09:20:25.105Z,12.94
2016-05-23T09:21:25.092Z,12.81
2016-05-23T09:22:25.110Z,12.8
2016-05-23T09:23:24.957Z,12.72
2016-05-23T09:24:25.099Z,12.63
2016-05-23T09:25:25.118Z,12.57
2016-05-23T09:26:25.105Z,12.5
2016-05-23T09:27:25.124Z,12.48
2016-05-23T09:28:25.110Z,12.39
2016-05-23T09:29:25.160Z,12.43
2016-05-23T09:30:24.960Z,12.37
2016-05-23T09:31:25.118Z,12.29
2016-05-23T09:32:25.106Z,12.28
2016-05-23T09:33:25.124Z,12.39
2016-05-23T09:34:24.970Z,12.33
2016-05-23T09:35:25.114Z,12.3
2016-05-23T09:36:24.820Z,12.26
2016-05-23T09:37:25.119Z,12.11
2016-05-23T09:38:25.122Z,11.99
2016-05-23T09:39:25.125Z,11.85
2016-05-23T09:40:25.127Z,11.85
2016-05-23T09:41:25.130Z,11.83
2016-05-23T09:42:25.117Z,11.78
2016-05-23T09:43:25.136Z,11.81
2016-05-23T09:44:25.326Z,11.8
2016-05-23T09:45:25.125Z,11.8
2016-05-23T09:46:25.144Z,11.77
2016-05-23T09:47:25.146Z,11.77
2016-05-23T09:48:25.134Z,11.74
2016-05-23T09:49:24.995Z,11.74
2016-05-23T09:50:25.138Z,11.73
2016-05-23T09:51:24.985Z,11.78
2016-05-23T09:52:24.988Z,11.77
2016-05-23T09:53:25.147Z,11.67
2016-05-23T09:54:25.149Z,11.59
2016-05-23T09:55:25.136Z,11.51
2016-05-23T09:56:25.139Z,11.53
2016-05-23T09:57:25.157Z,11.51
2016-05-23T09:58:25.144Z,11.52
2016-05-23T09:59:26.413Z,11.52
2016-05-23T10:00:24.994Z,11.58
2016-05-23T10:01:25.152Z,11.65
2016-05-23T10:02:25.155Z,11.68
2016-05-23T10:03:25.158Z,11.74
2016-05-23T10:04:25.161Z,11.7
2016-05-23T10:05:25.163Z,11.63
2016-05-23T10:06:25.182Z,11.56
2016-05-23T10:07:25.153Z,11.7
2016-05-23T10:08:25.171Z,11.78
2016-05-23T10:09:25.002Z,11.89
2016-05-23T10:10:25.161Z,12
2016-05-23T10:11:25.008Z,12.12
2016-05-23T10:12:25.167Z,12.23
2016-05-23T10:13:25.169Z,12.21
2016-05-23T10:14:25.047Z,12.3
2016-05-23T10:15:25.175Z,12.32
2016-05-23T10:16:25.178Z,12.36
2016-05-23T10:17:25.180Z,12.32
2016-05-23T10:18:25.166Z,12.32
2016-05-23T10:19:25.186Z,12.21
2016-05-23T10:20:25.032Z,12.17
2016-05-23T10:21:25.035Z,12.21
2016-05-23T10:22:25.177Z,12.2
2016-05-23T10:23:25.227Z,12.23
2016-05-23T10:24:25.183Z,12.23
2016-05-23T10:25:25.186Z,12.18
2016-05-23T10:26:25.032Z,12.15
2016-05-23T10:27:25.207Z,12.18
2016-05-23T10:28:25.194Z,12.2
2016-05-23T10:29:25.197Z,12.11
2016-05-23T10:30:25.199Z,12.18
2016-05-23T10:31:25.187Z,12.12
2016-05-23T10:32:25.190Z,12.11
2016-05-23T10:33:25.193Z,11.95
2016-05-23T10:34:25.194Z,11.97
2016-05-23T10:35:25.212Z,12.1
2016-05-23T10:36:25.200Z,12.12
2016-05-23T10:37:24.890Z,12.08
2016-05-23T10:38:25.205Z,12.21
2016-05-23T10:39:25.208Z,12.2
2016-05-23T10:40:25.211Z,12.12
2016-05-23T10:41:25.214Z,12.08
2016-05-23T10:42:25.216Z,12.2
2016-05-23T10:43:25.203Z,12.18
2016-05-23T10:44:25.689Z,12.21
2016-05-23T10:45:25.067Z,12.25
2016-05-23T10:46:25.211Z,12.21
2016-05-23T10:47:25.214Z,12.32
2016-05-23T10:48:25.060Z,12.3
2016-05-23T10:49:25.063Z,12.33
2016-05-23T10:50:25.222Z,12.32
2016-05-23T10:51:25.428Z,12.44
2016-05-23T10:52:25.071Z,12.47
2016-05-23T10:53:25.230Z,12.47
2016-05-23T10:54:25.233Z,12.36
2016-05-23T10:55:25.236Z,12.33
2016-05-23T10:56:25.238Z,12.28
2016-05-23T10:57:25.224Z,12.2
2016-05-23T10:58:25.259Z,12.3
2016-05-23T10:59:25.090Z,12.25
2016-05-23T11:00:25.218Z,12.15
2016-05-23T11:01:25.235Z,12.2
2016-05-23T11:02:25.082Z,12.14
2016-05-23T11:03:25.241Z,12.07
2016-05-23T11:04:25.229Z,11.99
2016-05-23T11:05:25.231Z,12.12
2016-05-23T11:06:25.234Z,12.02
2016-05-23T11:07:25.237Z,11.96
2016-05-23T11:08:25.240Z,11.97
2016-05-23T11:09:25.085Z,12.03
2016-05-23T11:10:25.245Z,11.97
2016-05-23T11:11:25.247Z,11.89
2016-05-23T11:12:25.234Z,11.8
2016-05-23T11:13:25.237Z,11.78
2016-05-23T11:14:25.552Z,11.7
2016-05-23T11:15:24.945Z,11.71
2016-05-23T11:16:25.261Z,11.68
2016-05-23T11:17:25.264Z,11.71
2016-05-23T11:18:25.267Z,11.65
2016-05-23T11:19:25.253Z,11.6
2016-05-23T11:20:25.100Z,11.65
2016-05-23T11:21:25.117Z,11.59
2016-05-23T11:22:25.105Z,11.55
2016-05-23T11:23:25.248Z,11.59
2016-05-23T11:24:25.250Z,11.56
2016-05-23T11:25:25.253Z,11.48
2016-05-23T11:26:25.272Z,11.4
2016-05-23T11:27:25.103Z,11.48
2016-05-23T11:28:25.261Z,11.44
2016-05-23T11:29:25.561Z,11.52
2016-05-23T11:30:25.111Z,11.49
2016-05-23T11:31:25.269Z,11.58
2016-05-23T11:32:25.272Z,11.53
2016-05-23T11:33:25.275Z,11.58
2016-05-23T11:34:25.263Z,11.62
2016-05-23T11:35:25.109Z,11.81
2016-05-23T11:36:25.268Z,11.83
2016-05-23T11:37:25.271Z,12.02
2016-05-23T11:38:25.117Z,12
2016-05-23T11:39:25.276Z,12.12
2016-05-23T11:40:25.278Z,12.26
2016-05-23T11:41:25.296Z,12.28
2016-05-23T11:42:25.284Z,12.37
2016-05-23T11:43:25.286Z,12.44
2016-05-23T11:44:25.179Z,12.45
2016-05-23T11:45:25.292Z,12.55
2016-05-23T11:46:25.278Z,12.55
2016-05-23T11:47:25.125Z,12.72
2016-05-23T11:48:25.284Z,12.75
2016-05-23T11:49:25.286Z,12.8
2016-05-23T11:50:25.289Z,12.93
2016-05-23T11:51:25.152Z,13.01
2016-05-23T11:52:25.295Z,13.03
2016-05-23T11:53:25.298Z,13.16
2016-05-23T11:54:25.144Z,13.24
2016-05-23T11:55:25.147Z,13.24
2016-05-23T11:56:25.290Z,13.39
2016-05-23T11:57:25.308Z,13.54
2016-05-23T11:58:25.311Z,13.55
2016-05-23T11:59:26.033Z,13.7
2016-05-23T12:00:25.302Z,13.7
2016-05-23T12:01:25.131Z,13.76
2016-05-23T12:02:25.165Z,13.91
2016-05-23T12:03:25.293Z,13.8
2016-05-23T12:04:25.312Z,13.85
2016-05-23T12:05:25.315Z,13.8
2016-05-23T12:06:25.161Z,13.71
2016-05-23T12:07:25.304Z,13.78
2016-05-23T12:08:25.307Z,13.73
2016-05-23T12:09:25.326Z,13.7
2016-05-23T12:10:25.313Z,13.71
2016-05-23T12:11:25.315Z,13.78
2016-05-23T12:12:25.317Z,13.78
2016-05-23T12:13:25.320Z,14.01
2016-05-23T12:14:25.495Z,14.26
2016-05-23T12:15:25.310Z,14.25
2016-05-23T12:16:25.312Z,14.45
2016-05-23T12:17:25.331Z,14.53
2016-05-23T12:18:25.333Z,14.49
2016-05-23T12:19:25.336Z,14.48
2016-05-23T12:20:25.323Z,14.44
2016-05-23T12:21:25.342Z,14.44
2016-05-23T12:22:25.329Z,14.38
2016-05-23T12:23:25.331Z,14.23
2016-05-23T12:24:25.334Z,14.23
2016-05-23T12:25:25.196Z,14.12
2016-05-23T12:26:25.355Z,14.08
2016-05-23T12:27:25.342Z,14.04
2016-05-23T12:28:25.345Z,13.89
2016-05-23T12:29:25.254Z,13.83
2016-05-23T12:30:25.350Z,13.76
2016-05-23T12:31:25.338Z,13.76
2016-05-23T12:32:25.355Z,13.58
2016-05-23T12:33:25.358Z,13.46
2016-05-23T12:34:25.345Z,13.37
2016-05-23T12:35:25.348Z,13.24
2016-05-23T12:36:25.273Z,13.26
2016-05-23T12:37:25.369Z,13.13
2016-05-23T12:38:25.450Z,13.13
2016-05-23T12:39:25.359Z,13.08
2016-05-23T12:40:25.204Z,13.11
2016-05-23T12:41:25.207Z,13.09
2016-05-23T12:42:25.367Z,13.05
2016-05-23T12:43:25.245Z,13.08
2016-05-23T12:44:25.216Z,13.09
2016-05-23T12:45:25.375Z,13.06
2016-05-23T12:46:25.487Z,13.02
2016-05-23T12:47:25.365Z,13.05
2016-05-23T12:48:25.384Z,13.05
2016-05-23T12:49:25.417Z,12.9
2016-05-23T12:50:25.403Z,12.8
2016-05-23T12:51:25.392Z,12.75
2016-05-23T12:52:25.394Z,12.8
2016-05-23T12:53:27.131Z,12.61
2016-05-23T12:54:25.384Z,12.51
2016-05-23T12:55:25.370Z,12.45
2016-05-23T12:56:25.388Z,12.32
2016-05-23T12:57:25.391Z,12.33
2016-05-23T12:58:25.378Z,12.11